ダーウィン の空港の天気 - METARとTAF

ダーウィン国際空港 ( YPDN / DRW ) - オーストラリア ノーザンテリトリーダーウィン
飛行場実況気象(Metar)
観測時間09/28 10:00 ACST (09/28 00:30 UTC)
風向・風速南東 2m/s
視程10km以上
天気現象
全天の8割程度の雲 雲底高度 850m
全天の8割程度の雲 雲底高度 5330m
気温30℃
湿度66%
気圧1011hPa
METARYPDN 280030Z 14004KT 9999 BKN028 BKN175 30/23 Q1011
過去の天気等 Google飛行場航空写真 Wunderground天気予報

過去48時間のMETAR

飛行場予報(TAF)
発表時間: 9/28 08:43 ACST (9/27 23:13 UTC)
予報対象時間: 28日9時 ACST ~ 29日15時 ACST
風向・風速北東 4m/s
視程10km以上
全天の4割程度の雲 雲底高度 760m
28日13時 ACST から
風向・風速北西 5m/s
視程10km以上
全天の4割程度の雲 雲底高度 910m
28日21時 ACST から
風向・風速北東 3m/s
視程10km以上
全天の4割程度の雲 雲底高度 460m
29日9時 ACST から
風向・風速東北東 7m/s
視程10km以上
全天の4割程度の雲 雲底高度 910m
29日1時 ACST ~ 29日6時 ACST に 確率 30% で一時的に
風向・風速不定 8m/s 瞬間風速 13m/s
視程1000m
天気現象雷雨
全天の8割程度の雲 雲底高度 300m
全天の4割程度の積乱雲 雲底高度 610m
TAF YPDN 272313Z 2800/2906 05007KT 9999 SCT025
FM280400 32010KT 9999 SCT030
FM281200 05006KT 9999 SCT015
FM290000 06014KT 9999 SCT030 INTER 2803/2809 3000 SHRA BKN015 INTER 2903/2906 3000 SHRA BKN015
PROB30 TEMPO 2816/2821 VRB15G25KT 1000 TSRA BKN010 SCT020CB